Strona główna
METAR-TAF:

METAR-TAF

Lotnisko :

Port lotniczy Kärdla

Kärdla, Estonia

Szerokość geograficzna: 58-59N, Długość geograficzna: 022-49E, wysokość: 5 m

Aktualna obserwacja pogody

Raport powstał 54 minut temu, godzina 07:50 UTC
Wiatr 5 kt od północ
Temperatura 24°C
Wilgotność 69%
Ciśnienie 1015 hPa
Widzialność 10 km lub więcej
Brak chmur poniżej 1500 m i brak chmur cumulonimbus

METAR: EEKA 160750Z 01005KT CAVOK 24/18 Q1015

czas: 11:44 (08:44 UTC)

Prognoza

Raport powstał 5 godziny i 44 minut temu, godzina 03:00 UTC
Prognoza ważna od 16 godzina 04 UTC do 16 godzina 10 UTC
Wiatr 6 kt od północny wschód
Widzialność 10 km lub więcej
Brak chmur poniżej 1500 m i brak chmur cumulonimbus

TAF: EEKA 160300Z 1604/1610 04006KT CAVOK

Obserwacja i prognoza pogody dla ponad 4000 lotnisk (raport METAR i TAF).

Dostępne stacje oznaczono żółtymi i czerwonymi punktami na mapie.

Najedź kursorem aby zobaczyć nazwę stacji.

Kliknij aby zobaczyć obserwacje i prognozy pogody.

Aby zmienić mapę: kliknij na zielony przycisk z czarnym krzyżykiem, aby powiększyć; na zielony przycisk z myślnikiem, aby pomniejszyć; na zielone strzałki, aby przejść do map sąsiednich.


METAR-TAF: